Terminal Aerodrome Forecast
Issued by NWS

Home | Current Version | Previous Version | Text Only | Print | Product List | Glossary On
Versions: 1 2 3 4 5 6 7 8 9 10 11 12 13 14 15 16 17 18 19 20 21 22 23 24 25 26 27 28 29 30 31 32 33 34 35 36
000
FTUS46 KLOX 011300 AAA
TAFLAX
TAF AMD
KLAX 011309Z 0113/0218 VRB03KT P6SM -SHRA SCT025 BKN050
     FM011500 10006KT P6SM VCSH SCT025 BKN050
     FM011800 19007KT P6SM VCSH SCT025 BKN050
     FM012100 26008KT P6SM VCSH BKN025 OVC040
     FM020300 29007KT P6SM VCSH SCT025 BKN050
     FM020700 VRB03KT P6SM VCSH SCT025 BKN050=

USA.gov is the U.S. government's official web portal to all federal, state and local government web resources and services.